YPPD/PHE METAR and TAF weather

Enter ICAO airport designator
Station Type Date Time Source
YPPD METAR 2022/06/27 08:30 UTC NOAA

YPPD 270830Z AUTO 12013KT 9999 // NCD 26/01 Q1017 RF00.0/000.0


Station Type Date Time Source
YPPD Decoded METAR 2022/06/27 08:30 UTC NOAA

Port Hedland Pardoo, Australia (YPPD) 20-06S 119-34E 10M
Jun 27, 2022 - 04:30 AM EDT / 2022.06.27 0830 UTC
Wind: from the ESE (120 degrees) at 15 MPH (13 KT):0
Visibility: greater than 7 mile(s):0
Temperature: 78 F (26 C)
Dew Point: 33 F (1 C)
Relative Humidity: 19%
Pressure (altimeter): 30.03 in. Hg (1017 hPa)
ob: YPPD 270830Z AUTO 12013KT 9999 // NCD 26/01 Q1017 RF00.0/000.0
cycle: 8

Station Type Date Time Source
YPPD TAF 2022/06/27 06:30 UTC NOAA

TAF TAF
AMD YPPD 270528Z 2706/2806 13018KT CAVOK
FM270900 13014KT CAVOK
FM280000 10020G30KT CAVOK
FM280400 10014KT CAVOK

Example: see airport list